createdAt,value
2023-03-16T00:00:45.239Z,-2.00
2023-03-16T00:01:45.233Z,-2.04
2023-03-16T00:02:45.255Z,-2.04
2023-03-16T00:03:45.206Z,-2.18
2023-03-16T00:04:45.199Z,-2.26
2023-03-16T00:05:45.183Z,-2.22
2023-03-16T00:06:45.173Z,-2.34
2023-03-16T00:07:45.160Z,-2.32
2023-03-16T00:08:45.139Z,-2.33
2023-03-16T00:09:45.145Z,-2.25
2023-03-16T00:10:45.114Z,-2.23
2023-03-16T00:11:46.108Z,-2.14
2023-03-16T00:12:45.222Z,-2.23
2023-03-16T00:13:45.103Z,-2.20
2023-03-16T00:14:45.150Z,-2.26
2023-03-16T00:15:45.086Z,-2.22
2023-03-16T00:16:45.158Z,-2.25
2023-03-16T00:17:45.083Z,-2.13
2023-03-16T00:18:45.053Z,-2.22
2023-03-16T00:19:45.039Z,-2.13
2023-03-16T00:20:45.040Z,-2.14
2023-03-16T00:21:45.026Z,-2.13
2023-03-16T00:22:45.042Z,-2.26
2023-03-16T00:23:45.012Z,-2.18
2023-03-16T00:24:44.993Z,-2.25
2023-03-16T00:25:45.010Z,-2.32
2023-03-16T00:26:44.962Z,-2.45
2023-03-16T00:27:44.950Z,-2.61
2023-03-16T00:28:44.961Z,-2.51
2023-03-16T00:29:44.996Z,-2.48
2023-03-16T00:30:44.922Z,-2.55
2023-03-16T00:31:45.015Z,-2.51
2023-03-16T00:32:44.947Z,-2.55
2023-03-16T00:33:44.891Z,-2.61
2023-03-16T00:34:44.897Z,-2.70
2023-03-16T00:35:44.887Z,-2.61
2023-03-16T00:36:44.857Z,-2.90
2023-03-16T00:37:44.894Z,-2.54
2023-03-16T00:38:44.830Z,-2.75
2023-03-16T00:39:44.818Z,-2.63
2023-03-16T00:40:44.844Z,-2.62
2023-03-16T00:41:44.798Z,-2.50
2023-03-16T00:42:44.793Z,-2.25
2023-03-16T00:43:44.820Z,-2.33
2023-03-16T00:44:44.765Z,-2.36
2023-03-16T00:45:44.835Z,-2.50
2023-03-16T00:46:44.752Z,-2.65
2023-03-16T00:47:44.745Z,-2.61
2023-03-16T00:48:44.725Z,-2.69
2023-03-16T00:49:44.737Z,-2.90
2023-03-16T00:50:44.700Z,-2.98
2023-03-16T00:51:44.702Z,-3.01
2023-03-16T00:52:44.710Z,-3.09
2023-03-16T00:53:44.691Z,-3.05
2023-03-16T00:54:44.683Z,-3.26
2023-03-16T00:55:44.788Z,-3.22
2023-03-16T00:56:44.660Z,-3.12
2023-03-16T00:57:44.629Z,-3.09
2023-03-16T00:58:44.636Z,-2.98
2023-03-16T00:59:44.615Z,-3.02
2023-03-16T01:00:44.618Z,-3.08
2023-03-16T01:01:44.619Z,-2.94
2023-03-16T01:02:44.606Z,-3.05
2023-03-16T01:03:44.620Z,-3.02
2023-03-16T01:04:44.564Z,-3.01
2023-03-16T01:05:44.584Z,-2.96
2023-03-16T01:06:44.540Z,-2.93
2023-03-16T01:07:44.545Z,-2.84
2023-03-16T01:08:44.543Z,-2.78
2023-03-16T01:09:44.520Z,-2.75
2023-03-16T01:10:44.530Z,-2.78
2023-03-16T01:11:44.498Z,-2.81
2023-03-16T01:12:44.478Z,-2.73
2023-03-16T01:13:44.490Z,-2.76
2023-03-16T01:14:44.464Z,-2.76
2023-03-16T01:15:44.476Z,-2.89
2023-03-16T01:16:44.459Z,-2.81
2023-03-16T01:17:44.427Z,-2.90
2023-03-16T01:18:44.422Z,-2.80
2023-03-16T01:19:44.414Z,-2.90
2023-03-16T01:20:44.404Z,-2.78
2023-03-16T01:21:44.395Z,-2.72
2023-03-16T01:22:44.409Z,-2.63
2023-03-16T01:23:44.430Z,-2.51
2023-03-16T01:24:44.357Z,-2.39
2023-03-16T01:25:44.348Z,-2.52
2023-03-16T01:26:44.373Z,-2.48
2023-03-16T01:27:44.333Z,-2.44
2023-03-16T01:28:44.330Z,-2.44
2023-03-16T01:29:44.325Z,-2.51
2023-03-16T01:30:44.340Z,-2.55
2023-03-16T01:31:44.309Z,-2.65
2023-03-16T01:32:44.331Z,-2.65
2023-03-16T01:33:44.279Z,-2.73
2023-03-16T01:34:44.276Z,-2.83
2023-03-16T01:35:44.274Z,-2.89
2023-03-16T01:36:44.240Z,-2.86
2023-03-16T01:37:44.249Z,-2.83
2023-03-16T01:38:44.229Z,-2.87
2023-03-16T01:39:44.205Z,-3.22
2023-03-16T01:40:44.217Z,-3.09
2023-03-16T01:41:44.204Z,-2.98
2023-03-16T01:42:44.202Z,-3.17
2023-03-16T01:43:44.187Z,-3.08
2023-03-16T01:44:44.160Z,-3.22
2023-03-16T01:45:44.148Z,-3.09
2023-03-16T01:46:44.155Z,-3.22
2023-03-16T01:47:44.149Z,-3.29
2023-03-16T01:48:44.109Z,-3.43
2023-03-16T01:49:44.098Z,-3.29
2023-03-16T01:50:45.095Z,-3.22
2023-03-16T01:51:44.087Z,-3.15
2023-03-16T01:52:44.094Z,-3.15
2023-03-16T01:53:44.070Z,-3.30
2023-03-16T01:54:44.061Z,-3.47
2023-03-16T01:55:44.045Z,-3.43
2023-03-16T01:56:44.038Z,-3.33
2023-03-16T01:57:44.040Z,-3.22
2023-03-16T01:58:44.043Z,-2.99
2023-03-16T01:59:44.003Z,-2.80
2023-03-16T02:00:43.995Z,-2.81
2023-03-16T02:01:44.021Z,-2.93
2023-03-16T02:02:44.002Z,-2.94
2023-03-16T02:03:43.986Z,-2.90
2023-03-16T02:04:44.012Z,-3.08
2023-03-16T02:05:43.953Z,-3.19
2023-03-16T02:06:43.942Z,-3.29
2023-03-16T02:07:43.946Z,-3.20
2023-03-16T02:08:43.917Z,-2.99
2023-03-16T02:09:43.901Z,-2.96
2023-03-16T02:10:43.912Z,-2.99
2023-03-16T02:11:43.909Z,-2.86
2023-03-16T02:12:43.884Z,-2.89
2023-03-16T02:13:43.902Z,-2.84
2023-03-16T02:14:43.876Z,-2.78
2023-03-16T02:15:43.958Z,-2.84
2023-03-16T02:16:43.860Z,-2.96
2023-03-16T02:17:43.881Z,-2.78
2023-03-16T02:18:43.813Z,-2.96
2023-03-16T02:19:43.860Z,-2.90
2023-03-16T02:20:43.810Z,-2.83
2023-03-16T02:21:43.792Z,-2.78
2023-03-16T02:22:43.824Z,-2.78
2023-03-16T02:23:43.773Z,-2.83
2023-03-16T02:24:43.781Z,-2.87
2023-03-16T02:25:43.762Z,-2.87
2023-03-16T02:26:43.743Z,-2.83
2023-03-16T02:27:43.743Z,-2.90
2023-03-16T02:28:43.743Z,-2.99
2023-03-16T02:29:43.728Z,-2.98
2023-03-16T02:30:43.801Z,-2.94
2023-03-16T02:31:43.696Z,-3.02
2023-03-16T02:32:43.709Z,-2.93
2023-03-16T02:33:43.683Z,-2.90
2023-03-16T02:34:43.674Z,-2.93
2023-03-16T02:35:43.667Z,-2.99
2023-03-16T02:36:43.660Z,-2.86
2023-03-16T02:37:43.642Z,-2.98
2023-03-16T02:38:43.640Z,-2.93
2023-03-16T02:39:43.607Z,-2.93
2023-03-16T02:40:43.601Z,-3.04
2023-03-16T02:41:43.604Z,-3.15
2023-03-16T02:42:43.576Z,-3.29
2023-03-16T02:43:43.569Z,-3.20
2023-03-16T02:44:43.561Z,-3.15
2023-03-16T02:45:43.572Z,-3.12
2023-03-16T02:46:43.732Z,-3.26
2023-03-16T02:47:43.552Z,-3.30
2023-03-16T02:48:43.523Z,-3.40
2023-03-16T02:49:43.516Z,-3.58
2023-03-16T02:50:43.502Z,-3.69
2023-03-16T02:51:43.488Z,-3.74
2023-03-16T02:52:43.506Z,-3.61
2023-03-16T02:53:43.462Z,-3.65
2023-03-16T02:54:43.456Z,-3.69
2023-03-16T02:55:43.456Z,-3.81
2023-03-16T02:56:43.427Z,-3.98
2023-03-16T02:57:43.429Z,-4.08
2023-03-16T02:58:43.435Z,-3.96
2023-03-16T02:59:43.414Z,-3.96
2023-03-16T03:00:43.408Z,-3.90
2023-03-16T03:01:43.389Z,-3.94
2023-03-16T03:02:43.469Z,-3.88
2023-03-16T03:03:43.390Z,-3.95
2023-03-16T03:04:43.349Z,-3.83
2023-03-16T03:05:43.339Z,-3.74
2023-03-16T03:06:43.345Z,-3.80
2023-03-16T03:07:43.332Z,-3.69
2023-03-16T03:08:43.322Z,-3.80
2023-03-16T03:09:43.322Z,-3.78
2023-03-16T03:10:43.293Z,-3.74
2023-03-16T03:11:43.294Z,-3.85
2023-03-16T03:12:43.268Z,-3.88
2023-03-16T03:13:43.258Z,-3.87
2023-03-16T03:14:43.262Z,-3.85
2023-03-16T03:15:43.236Z,-3.98
2023-03-16T03:16:43.283Z,-4.04
2023-03-16T03:17:43.256Z,-4.04
2023-03-16T03:18:43.206Z,-4.06
2023-03-16T03:19:43.204Z,-4.01
2023-03-16T03:20:43.200Z,-4.16
2023-03-16T03:21:43.181Z,-3.91
2023-03-16T03:22:43.172Z,-4.14
2023-03-16T03:23:43.156Z,-4.12
2023-03-16T03:24:43.156Z,-4.04
2023-03-16T03:25:43.155Z,-4.13
2023-03-16T03:26:43.128Z,-4.08
2023-03-16T03:27:43.173Z,-3.99
2023-03-16T03:28:43.096Z,-3.87
2023-03-16T03:29:43.113Z,-3.95
2023-03-16T03:30:43.087Z,-3.81
2023-03-16T03:31:43.179Z,-3.62
2023-03-16T03:32:43.139Z,-3.47
2023-03-16T03:33:43.065Z,-3.30
2023-03-16T03:34:43.056Z,-3.30
2023-03-16T03:35:43.068Z,-3.29
2023-03-16T03:36:43.038Z,-3.29
2023-03-16T03:37:43.029Z,-3.23
2023-03-16T03:38:43.003Z,-3.12
2023-03-16T03:39:42.998Z,-3.25
2023-03-16T03:40:42.980Z,-3.14
2023-03-16T03:41:42.994Z,-3.15
2023-03-16T03:42:42.970Z,-3.14
2023-03-16T03:43:42.971Z,-3.17
2023-03-16T03:44:42.946Z,-3.05
2023-03-16T03:45:43.017Z,-3.05
2023-03-16T03:46:43.088Z,-2.83
2023-03-16T03:47:42.923Z,-2.73
2023-03-16T03:48:42.919Z,-2.72
2023-03-16T03:49:42.886Z,-2.94
2023-03-16T03:50:42.881Z,-2.96
2023-03-16T03:51:42.889Z,-2.94
2023-03-16T03:52:42.849Z,-3.01
2023-03-16T03:53:42.885Z,-3.01
2023-03-16T03:54:42.870Z,-3.04
2023-03-16T03:55:42.830Z,-2.98
2023-03-16T03:56:42.818Z,-3.02
2023-03-16T03:57:42.824Z,-3.17
2023-03-16T03:58:42.809Z,-3.20
2023-03-16T03:59:42.798Z,-3.19
2023-03-16T04:00:42.785Z,-3.22
2023-03-16T04:01:42.771Z,-3.20
2023-03-16T04:02:42.889Z,-3.20
2023-03-16T04:03:45.107Z,-3.25
2023-03-16T04:04:42.757Z,-3.32
2023-03-16T04:05:42.722Z,-3.27
2023-03-16T04:06:42.733Z,-3.38
2023-03-16T04:07:42.725Z,-3.36
2023-03-16T04:08:42.691Z,-3.25
2023-03-16T04:09:42.703Z,-3.25
2023-03-16T04:10:42.683Z,-3.36
2023-03-16T04:11:42.665Z,-3.32
2023-03-16T04:12:42.678Z,-3.36
2023-03-16T04:13:42.672Z,-3.33
2023-03-16T04:14:42.645Z,-3.40
2023-03-16T04:15:42.631Z,-3.47
2023-03-16T04:16:42.645Z,-3.38
2023-03-16T04:17:42.609Z,-3.43
2023-03-16T04:18:42.606Z,-3.26
2023-03-16T04:19:42.588Z,-3.08
2023-03-16T04:20:42.607Z,-3.08
2023-03-16T04:21:42.578Z,-3.14
2023-03-16T04:22:43.582Z,-3.12
2023-03-16T04:23:42.556Z,-3.29
2023-03-16T04:24:42.553Z,-3.29
2023-03-16T04:25:42.539Z,-3.22
2023-03-16T04:26:42.508Z,-3.11
2023-03-16T04:27:43.521Z,-3.09
2023-03-16T04:28:42.495Z,-2.99
2023-03-16T04:29:42.490Z,-2.96
2023-03-16T04:30:42.534Z,-2.90
2023-03-16T04:31:42.520Z,-3.01
2023-03-16T04:32:42.508Z,-2.91
2023-03-16T04:33:42.458Z,-3.07
2023-03-16T04:34:42.451Z,-3.05
2023-03-16T04:35:42.472Z,-2.96
2023-03-16T04:36:42.430Z,-3.07
2023-03-16T04:37:42.447Z,-3.07
2023-03-16T04:38:42.406Z,-3.14
2023-03-16T04:39:42.403Z,-3.23
2023-03-16T04:40:42.383Z,-3.43
2023-03-16T04:41:42.380Z,-3.64
2023-03-16T04:42:42.376Z,-3.68
2023-03-16T04:43:42.356Z,-3.62
2023-03-16T04:44:42.358Z,-3.78
2023-03-16T04:45:42.321Z,-3.81
2023-03-16T04:46:42.367Z,-4.04
2023-03-16T04:47:42.327Z,-4.01
2023-03-16T04:48:42.289Z,-4.09
2023-03-16T04:49:42.296Z,-4.12
2023-03-16T04:50:42.285Z,-3.83
2023-03-16T04:51:42.290Z,-3.62
2023-03-16T04:52:42.250Z,-3.30
2023-03-16T04:53:42.255Z,-3.20
2023-03-16T04:54:42.243Z,-3.14
2023-03-16T04:55:42.232Z,-3.05
2023-03-16T04:56:42.220Z,-3.04
2023-03-16T04:57:42.218Z,-3.05
2023-03-16T04:58:42.208Z,-2.99
2023-03-16T04:59:42.199Z,-3.05
2023-03-16T05:00:42.181Z,-3.09
2023-03-16T05:01:42.203Z,-2.99
2023-03-16T05:02:42.173Z,-2.99
2023-03-16T05:03:42.138Z,-2.96
2023-03-16T05:04:42.149Z,-2.89
2023-03-16T05:05:42.157Z,-2.94
2023-03-16T05:06:42.139Z,-2.94
2023-03-16T05:07:42.109Z,-2.91
2023-03-16T05:08:42.096Z,-2.86
2023-03-16T05:09:42.103Z,-2.81
2023-03-16T05:10:42.077Z,-2.78
2023-03-16T05:11:42.060Z,-2.84
2023-03-16T05:12:42.060Z,-2.84
2023-03-16T05:13:42.086Z,-2.83
2023-03-16T05:14:42.043Z,-2.98
2023-03-16T05:15:42.146Z,-3.04
2023-03-16T05:16:42.037Z,-3.11
2023-03-16T05:17:42.028Z,-3.17
2023-03-16T05:18:42.017Z,-2.98
2023-03-16T05:19:41.993Z,-3.01
2023-03-16T05:20:41.986Z,-3.07
2023-03-16T05:21:41.978Z,-3.25
2023-03-16T05:22:41.961Z,-3.43
2023-03-16T05:23:41.955Z,-3.37
2023-03-16T05:24:41.950Z,-3.43
2023-03-16T05:25:41.935Z,-3.36
2023-03-16T05:26:41.921Z,-3.36
2023-03-16T05:27:41.893Z,-3.50
2023-03-16T05:28:41.899Z,-3.51
2023-03-16T05:29:41.901Z,-3.62
2023-03-16T05:30:41.886Z,-3.59
2023-03-16T05:31:41.909Z,-3.55
2023-03-16T05:32:41.924Z,-3.53
2023-03-16T05:33:41.850Z,-3.55
2023-03-16T05:34:41.852Z,-3.59
2023-03-16T05:35:41.842Z,-3.51
2023-03-16T05:36:41.816Z,-3.56
2023-03-16T05:37:41.811Z,-3.48
2023-03-16T05:38:41.797Z,-3.48
2023-03-16T05:39:41.794Z,-3.53
2023-03-16T05:40:41.788Z,-3.50
2023-03-16T05:41:41.774Z,-3.47
2023-03-16T05:42:41.756Z,-3.46
2023-03-16T05:43:41.764Z,-3.30
2023-03-16T05:44:41.791Z,-3.29
2023-03-16T05:45:41.726Z,-3.20
2023-03-16T05:46:41.793Z,-3.23
2023-03-16T05:47:41.719Z,-3.15
2023-03-16T05:48:41.721Z,-3.17
2023-03-16T05:49:41.694Z,-3.17
2023-03-16T05:50:41.673Z,-3.11
2023-03-16T05:51:41.672Z,-3.04
2023-03-16T05:52:41.667Z,-3.07
2023-03-16T05:53:41.660Z,-2.90
2023-03-16T05:54:41.646Z,-2.94
2023-03-16T05:55:41.635Z,-2.72
2023-03-16T05:56:41.620Z,-2.63
2023-03-16T05:57:41.610Z,-2.40
2023-03-16T05:58:41.617Z,-2.33
2023-03-16T05:59:41.589Z,-2.11
2023-03-16T06:00:41.565Z,-2.00
2023-03-16T06:01:41.562Z,-1.86
2023-03-16T06:02:41.600Z,-1.92
2023-03-16T06:03:41.585Z,-1.86
2023-03-16T06:04:41.540Z,-1.71
2023-03-16T06:05:41.533Z,-1.66
2023-03-16T06:06:41.520Z,-1.58
2023-03-16T06:07:41.497Z,-1.56
2023-03-16T06:08:41.531Z,-1.39
2023-03-16T06:09:41.487Z,-1.38
2023-03-16T06:10:41.488Z,-1.33
2023-03-16T06:11:41.476Z,-1.18
2023-03-16T06:12:41.460Z,-1.14
2023-03-16T06:13:41.448Z,-1.06
2023-03-16T06:14:41.426Z,-1.01
2023-03-16T06:15:41.438Z,-0.87
2023-03-16T06:16:41.437Z,-0.93
2023-03-16T06:17:41.409Z,-0.81
2023-03-16T06:18:41.404Z,-0.69
2023-03-16T06:19:41.377Z,-0.59
2023-03-16T06:20:41.383Z,-0.51
2023-03-16T06:21:41.414Z,-0.48
2023-03-16T06:22:41.340Z,-0.35
2023-03-16T06:23:41.327Z,-0.30
2023-03-16T06:24:41.327Z,-0.27
2023-03-16T06:25:41.323Z,-0.17
2023-03-16T06:26:41.289Z,-0.07
2023-03-16T06:27:41.287Z,0.01
2023-03-16T06:28:41.271Z,0.15
2023-03-16T06:29:41.278Z,0.24
2023-03-16T06:30:41.268Z,0.23
2023-03-16T06:31:41.359Z,0.34
2023-03-16T06:32:41.261Z,0.36
2023-03-16T06:33:41.218Z,0.40
2023-03-16T06:34:41.203Z,0.48
2023-03-16T06:35:41.236Z,0.52
2023-03-16T06:36:41.187Z,0.55
2023-03-16T06:37:41.169Z,0.55
2023-03-16T06:38:41.166Z,0.63
2023-03-16T06:39:41.172Z,0.67
2023-03-16T06:40:41.140Z,0.47
2023-03-16T06:41:41.134Z,0.55
2023-03-16T06:42:41.146Z,0.51
2023-03-16T06:43:41.106Z,0.59
2023-03-16T06:44:41.120Z,0.73
2023-03-16T06:45:41.135Z,0.45
2023-03-16T06:46:41.080Z,0.67
2023-03-16T06:47:41.091Z,0.61
2023-03-16T06:48:41.070Z,0.71
2023-03-16T06:49:41.062Z,0.73
2023-03-16T06:50:41.044Z,0.76
2023-03-16T06:51:41.037Z,0.86
2023-03-16T06:52:41.006Z,0.85
2023-03-16T06:53:41.008Z,0.89
2023-03-16T06:54:41.017Z,0.84
2023-03-16T06:55:40.983Z,0.92
2023-03-16T06:56:40.975Z,1.10
2023-03-16T06:57:40.973Z,1.14
2023-03-16T06:58:40.947Z,1.10
2023-03-16T06:59:40.954Z,1.10
2023-03-16T07:00:40.947Z,1.24
2023-03-16T07:01:40.928Z,1.25
2023-03-16T07:02:40.944Z,1.31
2023-03-16T07:03:40.903Z,1.34
2023-03-16T07:04:41.042Z,1.50
2023-03-16T07:05:40.889Z,1.46
2023-03-16T07:06:40.878Z,1.32
2023-03-16T07:07:40.869Z,1.31
2023-03-16T07:08:40.844Z,1.39
2023-03-16T07:09:41.870Z,1.39
2023-03-16T07:10:41.835Z,1.39
2023-03-16T07:11:40.813Z,1.49
2023-03-16T07:12:40.798Z,1.46
2023-03-16T07:13:40.802Z,1.38
2023-03-16T07:14:40.788Z,1.45
2023-03-16T07:15:40.779Z,1.52
2023-03-16T07:16:40.820Z,1.46
2023-03-16T07:17:40.762Z,1.52
2023-03-16T07:18:40.734Z,1.64
2023-03-16T07:19:40.740Z,1.74
2023-03-16T07:20:40.698Z,1.82
2023-03-16T07:21:40.715Z,1.79
2023-03-16T07:22:40.714Z,1.79
2023-03-16T07:23:40.682Z,1.76
2023-03-16T07:24:40.676Z,1.82
2023-03-16T07:25:40.682Z,2.03
2023-03-16T07:26:40.643Z,1.97
2023-03-16T07:27:40.636Z,2.00
2023-03-16T07:28:40.656Z,2.12
2023-03-16T07:29:40.605Z,2.19
2023-03-16T07:30:45.922Z,2.30
2023-03-16T07:31:41.626Z,2.32
2023-03-16T07:32:40.615Z,2.28
2023-03-16T07:33:40.591Z,2.44
2023-03-16T07:34:40.591Z,2.40
2023-03-16T07:35:40.579Z,2.50
2023-03-16T07:36:40.566Z,2.52
2023-03-16T07:37:40.578Z,2.54
2023-03-16T07:38:40.527Z,2.43
2023-03-16T07:39:40.528Z,2.19
2023-03-16T07:40:40.511Z,2.19
2023-03-16T07:41:40.491Z,2.18
2023-03-16T07:42:40.480Z,2.22
2023-03-16T07:43:40.473Z,2.15
2023-03-16T07:44:40.470Z,2.25
2023-03-16T07:45:40.508Z,2.30
2023-03-16T07:46:40.447Z,2.41
2023-03-16T07:47:40.432Z,2.55
2023-03-16T07:48:40.426Z,2.65
2023-03-16T07:49:40.402Z,2.61
2023-03-16T07:50:40.389Z,2.70
2023-03-16T07:51:40.396Z,2.87
2023-03-16T07:52:40.366Z,2.85
2023-03-16T07:53:40.364Z,2.98
2023-03-16T07:54:40.367Z,2.97
2023-03-16T07:55:40.332Z,2.97
2023-03-16T07:56:48.699Z,2.95
2023-03-16T07:57:42.335Z,2.95
2023-03-16T07:58:40.309Z,3.19
2023-03-16T07:59:40.316Z,3.19
2023-03-16T08:00:40.291Z,3.24
2023-03-16T08:01:40.298Z,3.33
2023-03-16T08:02:40.317Z,3.30
2023-03-16T08:03:40.323Z,3.46
2023-03-16T08:04:40.249Z,3.53
2023-03-16T08:05:40.228Z,3.58
2023-03-16T08:06:40.220Z,3.63
2023-03-16T08:07:40.222Z,3.67
2023-03-16T08:08:40.207Z,3.66
2023-03-16T08:09:40.189Z,3.70
2023-03-16T08:10:40.181Z,3.85
2023-03-16T08:11:40.168Z,3.86
2023-03-16T08:12:40.244Z,3.88
2023-03-16T08:13:40.141Z,3.92
2023-03-16T08:14:40.142Z,4.09
2023-03-16T08:15:40.211Z,4.12
2023-03-16T08:16:40.135Z,4.12
2023-03-16T08:17:40.130Z,4.07
2023-03-16T08:18:40.089Z,4.10
2023-03-16T08:19:40.089Z,4.38
2023-03-16T08:20:40.104Z,4.34
2023-03-16T08:21:57.502Z,4.45
2023-03-16T08:22:42.061Z,4.56
2023-03-16T08:23:40.046Z,4.57
2023-03-16T08:24:40.045Z,4.50
2023-03-16T08:25:40.044Z,4.64
2023-03-16T08:26:40.041Z,4.68
2023-03-16T08:27:40.028Z,4.71
2023-03-16T08:28:40.076Z,4.67
2023-03-16T08:29:39.988Z,4.70
2023-03-16T08:30:40.024Z,4.66
2023-03-16T08:31:40.074Z,4.67
2023-03-16T08:32:40.103Z,4.76
2023-03-16T08:33:39.949Z,4.74
2023-03-16T08:34:40.008Z,4.71
2023-03-16T08:35:39.989Z,4.79
2023-03-16T08:36:39.926Z,4.89
2023-03-16T08:37:39.898Z,4.92
2023-03-16T08:38:39.930Z,4.79
2023-03-16T08:39:39.894Z,4.68
2023-03-16T08:40:39.860Z,4.66
2023-03-16T08:41:39.882Z,4.76
2023-03-16T08:42:39.874Z,4.92
2023-03-16T08:43:39.827Z,5.00
2023-03-16T08:44:39.858Z,5.07
2023-03-16T08:45:39.832Z,5.15
2023-03-16T08:46:39.899Z,5.15
2023-03-16T08:47:39.797Z,5.10
2023-03-16T08:48:39.786Z,5.20
2023-03-16T08:49:39.789Z,5.18
2023-03-16T08:50:39.766Z,4.89
2023-03-16T08:51:39.764Z,5.13
2023-03-16T08:52:40.777Z,5.25
2023-03-16T08:53:39.724Z,5.25
2023-03-16T08:54:39.728Z,5.37
2023-03-16T08:55:39.738Z,5.51
2023-03-16T08:56:39.715Z,5.55
2023-03-16T08:57:39.723Z,5.67
2023-03-16T08:58:39.679Z,5.61
2023-03-16T08:59:39.669Z,5.70
2023-03-16T09:00:39.702Z,5.83
2023-03-16T09:01:39.729Z,5.95
2023-03-16T09:02:39.639Z,5.95
2023-03-16T09:03:39.641Z,6.09
2023-03-16T09:04:39.684Z,5.97
2023-03-16T09:05:39.614Z,6.05
2023-03-16T09:06:39.590Z,6.13
2023-03-16T09:07:39.607Z,6.12
2023-03-16T09:08:39.603Z,6.06
2023-03-16T09:09:39.580Z,5.95
2023-03-16T09:10:39.571Z,5.88
2023-03-16T09:11:39.559Z,5.73
2023-03-16T09:12:39.554Z,5.65
2023-03-16T09:13:39.513Z,5.84
2023-03-16T09:14:39.522Z,5.76
2023-03-16T09:15:39.503Z,5.74
2023-03-16T09:16:40.586Z,5.72
2023-03-16T09:17:39.488Z,5.64
2023-03-16T09:18:39.494Z,5.58
2023-03-16T09:19:54.428Z,5.70
2023-03-16T09:20:41.481Z,5.69
2023-03-16T09:21:39.444Z,5.73
2023-03-16T09:22:39.457Z,5.44
2023-03-16T09:23:39.447Z,5.40
2023-03-16T09:24:39.414Z,5.47
2023-03-16T09:25:39.405Z,5.58
2023-03-16T09:26:39.393Z,5.64
2023-03-16T09:27:39.389Z,5.74
2023-03-16T09:28:39.368Z,5.88
2023-03-16T09:29:39.364Z,5.81
2023-03-16T09:30:39.362Z,5.64
2023-03-16T09:31:39.417Z,5.73
2023-03-16T09:32:39.353Z,5.99
2023-03-16T09:33:39.312Z,6.20
2023-03-16T09:34:39.359Z,6.29
2023-03-16T09:35:39.352Z,6.38
2023-03-16T09:36:39.304Z,6.67
2023-03-16T09:37:45.630Z,6.90
2023-03-16T09:38:41.271Z,6.93
2023-03-16T09:39:39.271Z,7.14
2023-03-16T09:40:39.258Z,7.32
2023-03-16T09:41:39.242Z,7.44
2023-03-16T09:42:39.249Z,7.66
2023-03-16T09:43:39.225Z,7.77
2023-03-16T09:44:39.209Z,7.83
2023-03-16T09:45:39.237Z,7.95
2023-03-16T09:46:39.185Z,7.91
2023-03-16T09:47:39.163Z,8.11
2023-03-16T09:48:39.161Z,8.16
2023-03-16T09:49:39.195Z,8.17
2023-03-16T09:50:48.378Z,8.32
2023-03-16T09:51:41.147Z,7.85
2023-03-16T09:52:39.118Z,7.47
2023-03-16T09:53:39.165Z,7.40
2023-03-16T09:54:39.113Z,7.61
2023-03-16T09:55:39.099Z,7.70
2023-03-16T09:56:39.066Z,7.80
2023-03-16T09:57:39.066Z,8.11
2023-03-16T09:58:39.049Z,8.26
2023-03-16T09:59:39.039Z,8.38
2023-03-16T10:00:39.042Z,8.49
2023-03-16T10:01:39.017Z,8.61
2023-03-16T10:02:39.028Z,8.41
2023-03-16T10:03:39.007Z,8.57
2023-03-16T10:04:38.982Z,8.68
2023-03-16T10:05:38.969Z,8.69
2023-03-16T10:06:38.949Z,8.79
2023-03-16T10:07:38.966Z,8.84
2023-03-16T10:08:38.961Z,8.87
2023-03-16T10:09:38.919Z,8.86
2023-03-16T10:10:38.915Z,8.78
2023-03-16T10:11:39.903Z,8.72
2023-03-16T10:12:39.006Z,8.71
2023-03-16T10:13:38.885Z,8.69
2023-03-16T10:14:38.984Z,8.78
2023-03-16T10:15:38.860Z,8.84
2023-03-16T10:16:38.891Z,9.03
2023-03-16T10:17:38.836Z,9.11
2023-03-16T10:18:38.846Z,9.27
2023-03-16T10:19:38.844Z,9.39
2023-03-16T10:20:38.804Z,9.49
2023-03-16T10:21:38.797Z,9.36
2023-03-16T10:22:39.795Z,9.33
2023-03-16T10:23:40.855Z,9.37
2023-03-16T10:24:39.745Z,9.40
2023-03-16T10:25:38.766Z,9.36
2023-03-16T10:26:38.716Z,9.37
2023-03-16T10:27:38.728Z,9.45
2023-03-16T10:28:38.716Z,9.63
2023-03-16T10:29:38.727Z,9.67
2023-03-16T10:30:38.801Z,9.73
2023-03-16T10:31:38.761Z,9.88
2023-03-16T10:32:38.750Z,9.74
2023-03-16T10:33:38.639Z,9.69
2023-03-16T10:34:38.634Z,9.59
2023-03-16T10:35:38.650Z,9.56
2023-03-16T10:37:10.556Z,9.44
2023-03-16T10:37:38.581Z,9.36
2023-03-16T10:38:38.664Z,9.44
2023-03-16T10:39:38.608Z,9.39
2023-03-16T10:40:38.601Z,9.44
2023-03-16T10:41:38.621Z,9.47
2023-03-16T10:42:38.568Z,9.70
2023-03-16T10:43:38.582Z,9.59
2023-03-16T10:44:38.592Z,9.48
2023-03-16T10:45:38.560Z,9.26
2023-03-16T10:46:38.668Z,9.18
2023-03-16T10:47:38.521Z,9.37
2023-03-16T10:48:38.476Z,9.39
2023-03-16T10:49:38.509Z,9.59
2023-03-16T10:50:38.467Z,9.63
2023-03-16T10:51:38.453Z,9.73
2023-03-16T10:52:38.439Z,9.87
2023-03-16T10:53:38.449Z,9.95
2023-03-16T10:54:38.431Z,9.97
2023-03-16T10:55:38.459Z,9.95
2023-03-16T10:56:38.430Z,9.95
2023-03-16T10:57:38.360Z,9.99
2023-03-16T10:58:38.369Z,10.02
2023-03-16T10:59:38.374Z,9.84
2023-03-16T11:00:38.354Z,10.03
2023-03-16T11:01:38.410Z,10.07
2023-03-16T11:02:38.310Z,10.05
2023-03-16T11:03:38.335Z,10.20
2023-03-16T11:04:39.308Z,10.27
2023-03-16T11:05:38.303Z,10.27
2023-03-16T11:06:38.277Z,10.45
2023-03-16T11:07:38.284Z,10.55
2023-03-16T11:08:38.284Z,10.38
2023-03-16T11:09:38.295Z,10.34
2023-03-16T11:10:49.501Z,10.53
2023-03-16T11:11:40.268Z,10.39
2023-03-16T11:12:38.196Z,10.45
2023-03-16T11:13:38.215Z,10.31
2023-03-16T11:14:38.200Z,10.33
2023-03-16T11:15:38.179Z,10.43
2023-03-16T11:16:38.194Z,10.61
2023-03-16T11:17:38.190Z,10.72
2023-03-16T11:18:38.185Z,10.95
2023-03-16T11:19:38.099Z,11.18
2023-03-16T11:20:38.133Z,11.23
2023-03-16T11:21:38.095Z,11.44
2023-03-16T11:22:38.104Z,11.48
2023-03-16T11:23:38.100Z,11.43
2023-03-16T11:24:38.086Z,11.37
2023-03-16T11:25:38.064Z,11.23
2023-03-16T11:26:38.060Z,11.26
2023-03-16T11:27:38.073Z,11.15
2023-03-16T11:28:38.043Z,11.19
2023-03-16T11:29:38.046Z,11.10
2023-03-16T11:30:38.018Z,11.40
2023-03-16T11:31:37.979Z,11.58
2023-03-16T11:32:38.046Z,11.60
2023-03-16T11:33:38.036Z,11.59
2023-03-16T11:34:37.972Z,11.55
2023-03-16T11:35:41.950Z,11.23
2023-03-16T11:36:39.959Z,11.18
2023-03-16T11:37:37.937Z,11.31
2023-03-16T11:38:37.935Z,11.63
2023-03-16T11:39:37.948Z,11.95
2023-03-16T11:40:37.895Z,11.80
2023-03-16T11:41:37.885Z,11.68
2023-03-16T11:42:37.873Z,11.68
2023-03-16T11:43:37.887Z,11.52
2023-03-16T11:44:37.822Z,11.44
2023-03-16T11:45:37.891Z,11.34
2023-03-16T11:46:37.872Z,11.33
2023-03-16T11:47:37.814Z,11.26
2023-03-16T11:48:37.823Z,11.33
2023-03-16T11:49:37.837Z,11.41
2023-03-16T11:50:37.832Z,11.43
2023-03-16T11:51:37.772Z,11.41
2023-03-16T11:52:37.794Z,11.52
2023-03-16T11:53:37.729Z,11.63
2023-03-16T11:54:37.765Z,11.62
2023-03-16T11:55:37.742Z,11.59
2023-03-16T11:56:37.723Z,11.73
2023-03-16T11:57:37.716Z,11.78
2023-03-16T11:58:37.677Z,12.08
2023-03-16T11:59:37.724Z,11.41
2023-03-16T12:00:37.674Z,11.35
2023-03-16T12:01:39.396Z,11.52
2023-03-16T12:02:37.771Z,11.71
2023-03-16T12:03:37.714Z,11.77
2023-03-16T12:04:37.628Z,11.91
2023-03-16T12:05:37.665Z,12.08
2023-03-16T12:06:37.595Z,12.02
2023-03-16T12:07:37.573Z,12.02
2023-03-16T12:08:37.629Z,12.00
2023-03-16T12:09:37.540Z,11.99
2023-03-16T12:10:37.566Z,11.97
2023-03-16T12:11:37.561Z,11.85
2023-03-16T12:12:37.551Z,11.86
2023-03-16T12:13:37.552Z,11.81
2023-03-16T12:14:37.541Z,11.93
2023-03-16T12:15:37.508Z,11.97
2023-03-16T12:16:48.816Z,11.74
2023-03-16T12:17:39.473Z,11.73
2023-03-16T12:18:37.505Z,11.85
2023-03-16T12:19:37.486Z,11.86
2023-03-16T12:20:37.453Z,12.02
2023-03-16T12:21:37.419Z,12.12
2023-03-16T12:22:37.438Z,12.14
2023-03-16T12:23:37.447Z,12.07
2023-03-16T12:24:37.385Z,12.10
2023-03-16T12:25:37.432Z,12.28
2023-03-16T12:26:37.462Z,12.44
2023-03-16T12:27:37.369Z,12.53
2023-03-16T12:28:37.355Z,12.63
2023-03-16T12:29:37.375Z,12.61
2023-03-16T12:30:37.325Z,12.62
2023-03-16T12:31:37.336Z,12.47
2023-03-16T12:32:37.418Z,12.66
2023-03-16T12:33:37.328Z,12.69
2023-03-16T12:34:37.282Z,12.75
2023-03-16T12:35:37.295Z,12.75
2023-03-16T12:36:37.321Z,12.68
2023-03-16T12:37:37.230Z,12.73
2023-03-16T12:38:37.272Z,12.76
2023-03-16T12:39:37.275Z,12.62
2023-03-16T12:40:37.192Z,12.58
2023-03-16T12:41:37.223Z,12.65
2023-03-16T12:42:37.200Z,12.51
2023-03-16T12:43:37.197Z,12.26
2023-03-16T12:44:37.173Z,12.25
2023-03-16T12:45:37.247Z,12.29
2023-03-16T12:46:37.178Z,12.69
2023-03-16T12:47:37.136Z,12.99
2023-03-16T12:48:37.130Z,13.09
2023-03-16T12:49:37.177Z,13.36
2023-03-16T12:50:37.118Z,13.54
2023-03-16T12:51:37.106Z,13.68
2023-03-16T12:52:37.075Z,13.85
2023-03-16T12:53:37.103Z,13.85
2023-03-16T12:54:37.075Z,13.93
2023-03-16T12:55:37.054Z,13.85
2023-03-16T12:56:37.070Z,13.40
2023-03-16T12:57:38.176Z,12.95
2023-03-16T12:58:38.026Z,12.65
2023-03-16T12:59:37.021Z,12.39
2023-03-16T13:00:37.008Z,12.78
2023-03-16T13:01:38.084Z,13.36